Time;durP1;ratioP1;P1;durP2;ratioP2;P2;SDS_P1;SDS_P2;PMS_P1;PMS_P2;Temp;Humidity;BMP_temperature;BMP_pressure;BME280_temperature;BME280_humidity;BME280_pressure;Samples;Min_cycle;Max_cycle;Signal;HPM_P1;HPM_P2
2021/09/08 00:00:11;;;;;;;1.52;1.15;;;18.80;71.10;;;;;;5114227;28;20027;-73
2021/09/08 00:02:37;;;;;;;1.13;1.02;;;18.80;71.00;;;;;;5113881;28;20020;-74
2021/09/08 00:05:05;;;;;;;0.80;0.80;;;18.90;71.00;;;;;;5114266;28;20547;-74
2021/09/08 00:07:30;;;;;;;0.90;0.90;;;18.80;70.90;;;;;;5114302;28;20047;-74
2021/09/08 00:09:56;;;;;;;1.23;1.00;;;18.80;71.00;;;;;;5114142;28;20030;-74
2021/09/08 00:12:21;;;;;;;1.10;1.00;;;18.90;71.00;;;;;;5114191;28;20062;-74
2021/09/08 00:14:47;;;;;;;1.63;1.08;;;18.80;71.00;;;;;;5114466;28;20023;-73
2021/09/08 00:17:12;;;;;;;1.35;1.00;;;18.80;71.10;;;;;;5113527;28;20039;-74
2021/09/08 00:19:38;;;;;;;1.00;0.80;;;18.80;71.10;;;;;;5114100;28;20414;-74
2021/09/08 00:22:03;;;;;;;1.20;1.10;;;18.70;71.10;;;;;;5114010;28;20023;-73
2021/09/08 00:24:29;;;;;;;1.05;0.70;;;18.70;71.20;;;;;;5113942;28;20099;-74
2021/09/08 00:26:54;;;;;;;1.17;1.10;;;18.70;71.20;;;;;;5113815;28;20020;-73
2021/09/08 00:29:20;;;;;;;1.75;1.00;;;18.70;71.20;;;;;;5095617;28;20027;-74
2021/09/08 00:31:45;;;;;;;1.48;1.30;;;18.60;71.20;;;;;;5113356;28;20027;-74
2021/09/08 00:34:11;;;;;;;1.30;1.00;;;18.60;71.30;;;;;;5113662;28;20036;-74
2021/09/08 00:36:36;;;;;;;0.90;0.90;;;18.50;71.20;;;;;;5113629;28;20032;-74
2021/09/08 00:39:02;;;;;;;1.17;0.98;;;18.60;71.30;;;;;;5113749;28;20072;-74
2021/09/08 00:41:32;;;;;;;0.98;0.90;;;18.60;71.30;;;;;;5113804;28;20094;-74
2021/09/08 00:44:09;;;;;;;2.20;1.15;;;18.50;71.20;;;;;;5113745;28;20495;-74
2021/09/08 00:46:36;;;;;;;1.17;1.00;;;18.50;71.30;;;;;;5113277;28;20012;-74
2021/09/08 00:49:02;;;;;;;1.20;1.10;;;18.50;71.30;;;;;;5113514;28;20030;-74
2021/09/08 00:51:28;;;;;;;1.52;1.20;;;18.50;71.30;;;;;;5113724;28;20102;-74
2021/09/08 00:53:56;;;;;;;1.13;0.98;;;18.40;71.30;;;;;;5113624;28;20028;-74
2021/09/08 00:56:22;;;;;;;0.82;0.80;;;18.40;71.40;;;;;;5113661;28;20110;-74
2021/09/08 00:58:48;;;;;;;1.25;1.15;;;18.40;71.40;;;;;;5113667;28;20031;-74
2021/09/08 01:01:13;;;;;;;1.08;0.82;;;18.40;71.40;;;;;;5113023;28;20024;-74
2021/09/08 01:03:39;;;;;;;0.73;0.73;;;18.40;71.50;;;;;;5116843;28;20023;-73
2021/09/08 01:06:04;;;;;;;1.00;1.00;;;18.40;71.40;;;;;;5117651;28;20048;-73
2021/09/08 01:08:30;;;;;;;1.38;1.13;;;18.40;71.50;;;;;;5117673;28;20053;-73
2021/09/08 01:10:56;;;;;;;1.63;1.15;;;18.40;71.50;;;;;;5117646;28;20041;-73
2021/09/08 01:13:21;;;;;;;1.10;1.00;;;18.30;71.50;;;;;;5117390;28;20060;-74
2021/09/08 01:15:58;;;;;;;2.42;1.60;;;18.30;71.50;;;;;;5117033;28;20024;-74
2021/09/08 01:18:24;;;;;;;1.10;1.00;;;18.30;71.40;;;;;;5117596;28;20035;-72
2021/09/08 01:20:50;;;;;;;1.60;1.20;;;18.40;71.60;;;;;;5117501;28;20023;-73
2021/09/08 01:23:15;;;;;;;1.40;1.08;;;18.30;71.60;;;;;;5117388;28;20023;-73
2021/09/08 01:25:41;;;;;;;2.10;1.30;;;18.30;71.60;;;;;;5098966;28;20043;-73
2021/09/08 01:28:06;;;;;;;1.10;1.00;;;18.30;71.60;;;;;;5116702;28;20037;-73
2021/09/08 01:30:32;;;;;;;1.58;1.20;;;18.30;71.60;;;;;;5117271;28;20057;-73
2021/09/08 01:33:00;;;;;;;1.40;1.30;;;18.30;71.60;;;;;;5117077;28;20075;-72
2021/09/08 01:35:25;;;;;;;2.03;1.23;;;18.30;71.70;;;;;;5117024;28;20499;-73
2021/09/08 01:37:51;;;;;;;1.45;1.20;;;18.20;71.80;;;;;;5117041;28;20031;-73
2021/09/08 01:40:18;;;;;;;2.05;1.17;;;18.20;71.80;;;;;;5117056;28;20470;-73
2021/09/08 01:42:45;;;;;;;2.60;1.42;;;18.10;71.90;;;;;;5116633;28;20027;-73
2021/09/08 01:45:14;;;;;;;1.20;0.77;;;18.10;71.90;;;;;;5117207;28;20472;-73
2021/09/08 01:47:40;;;;;;;;;;;18.10;71.90;;;;;;5117308;28;20023;-73
2021/09/08 01:50:08;;;;;;;1.40;1.05;;;18.00;71.80;;;;;;5116867;28;19911;-73
2021/09/08 01:52:35;;;;;;;1.90;1.23;;;18.00;72.00;;;;;;5117268;28;20024;-73
2021/09/08 01:55:01;;;;;;;0.95;0.80;;;18.00;72.00;;;;;;5116756;28;20022;-73
2021/09/08 01:57:26;;;;;;;1.40;1.13;;;18.00;72.00;;;;;;5097785;28;20078;-73
2021/09/08 01:59:52;;;;;;;2.08;1.45;;;18.00;72.00;;;;;;5116741;28;20384;-72
2021/09/08 02:02:17;;;;;;;1.13;1.02;;;18.00;72.00;;;;;;5116556;28;20024;-73
2021/09/08 02:04:43;;;;;;;1.27;1.05;;;18.00;72.10;;;;;;5116461;28;20024;-72
2021/09/08 02:07:08;;;;;;;1.60;1.05;;;18.00;72.10;;;;;;5116460;28;20111;-72
2021/09/08 02:09:34;;;;;;;1.42;1.10;;;17.90;72.70;;;;;;5116541;28;20102;-73
2021/09/08 02:12:00;;;;;;;1.65;1.27;;;17.90;72.00;;;;;;5115873;28;20024;-73
2021/09/08 02:14:25;;;;;;;1.20;1.10;;;17.90;72.10;;;;;;5116336;28;20028;-73
2021/09/08 02:16:50;;;;;;;2.28;1.30;;;17.90;72.10;;;;;;5116485;28;20067;-72
2021/09/08 02:19:16;;;;;;;1.30;1.08;;;17.90;72.10;;;;;;5097909;28;20381;-72
2021/09/08 02:21:42;;;;;;;1.08;0.88;;;17.90;72.20;;;;;;5116361;28;20023;-72
2021/09/08 02:24:07;;;;;;;1.60;1.23;;;17.80;72.20;;;;;;5116172;28;20488;-73
2021/09/08 02:26:33;;;;;;;1.60;1.05;;;17.80;72.30;;;;;;5115695;28;20102;-72
2021/09/08 02:28:58;;;;;;;1.98;1.40;;;17.80;72.40;;;;;;5116205;28;20024;-72
2021/09/08 02:31:24;;;;;;;2.45;1.30;;;17.80;72.40;;;;;;5116202;28;20032;-72
2021/09/08 02:33:50;;;;;;;1.77;1.20;;;17.70;72.40;;;;;;5097567;28;20051;-72
2021/09/08 02:36:15;;;;;;;1.85;1.25;;;17.70;72.40;;;;;;5115922;28;20027;-73
2021/09/08 02:38:41;;;;;;;1.67;1.20;;;17.60;72.50;;;;;;5115890;28;20027;-72
2021/09/08 02:41:08;;;;;;;1.00;0.90;;;17.60;72.60;;;;;;5097180;28;20050;-73
2021/09/08 02:43:36;;;;;;;1.25;0.70;;;17.60;72.60;;;;;;5115762;28;20488;-73
2021/09/08 02:46:03;;;;;;;1.20;1.10;;;17.60;72.70;;;;;;5115723;28;20024;-72
2021/09/08 02:48:33;;;;;;;1.35;1.13;;;17.50;72.60;;;;;;5115730;28;20026;-73
2021/09/08 02:51:00;;;;;;;1.98;1.30;;;17.50;72.70;;;;;;5097354;28;20016;-73
2021/09/08 02:53:26;;;;;;;1.92;1.20;;;17.50;72.80;;;;;;5115698;28;20028;-73
2021/09/08 02:55:52;;;;;;;1.67;1.20;;;17.50;73.10;;;;;;5114957;28;20053;-73
2021/09/08 02:58:18;;;;;;;1.38;1.25;;;17.50;72.80;;;;;;5097197;28;20031;-73
2021/09/08 03:00:43;;;;;;;1.27;1.10;;;17.50;72.80;;;;;;5115612;28;20011;-73
2021/09/08 03:03:09;;;;;;;2.47;1.13;;;17.40;72.80;;;;;;5097295;28;20425;-73
2021/09/08 03:05:34;;;;;;;1.10;1.00;;;17.40;72.80;;;;;;5115373;28;20042;-73
2021/09/08 03:08:00;;;;;;;1.63;1.30;;;17.40;72.80;;;;;;5115300;28;20034;-73
2021/09/08 03:10:25;;;;;;;1.98;1.15;;;17.40;72.90;;;;;;5096543;28;20034;-72
2021/09/08 03:12:51;;;;;;;1.98;1.50;;;17.40;73.00;;;;;;5115286;28;20019;-71
2021/09/08 03:15:16;;;;;;;1.20;1.10;;;17.30;73.00;;;;;;5115258;28;20036;-72
2021/09/08 03:17:42;;;;;;;1.70;1.00;;;17.30;73.00;;;;;;5115057;28;20032;-72
2021/09/08 03:20:08;;;;;;;1.52;1.05;;;17.30;73.10;;;;;;5115114;28;20051;-71
2021/09/08 03:22:34;;;;;;;1.40;1.30;;;17.30;73.10;;;;;;5114982;28;20035;-72
2021/09/08 03:24:59;;;;;;;1.75;1.33;;;17.30;73.80;;;;;;5114136;28;20019;-73
2021/09/08 03:27:25;;;;;;;2.33;1.40;;;17.30;73.20;;;;;;5115008;28;20034;-73
2021/09/08 03:29:51;;;;;;;1.52;1.17;;;17.30;73.20;;;;;;5114799;28;20495;-72
2021/09/08 03:32:16;;;;;;;1.85;1.58;;;17.20;73.30;;;;;;5114805;28;20045;-72
2021/09/08 03:34:42;;;;;;;1.75;1.33;;;17.20;73.30;;;;;;5114682;28;20040;-73
2021/09/08 03:37:07;;;;;;;1.60;1.40;;;17.20;73.30;;;;;;5114624;28;20062;-73
2021/09/08 03:39:33;;;;;;;2.13;1.55;;;17.10;73.40;;;;;;5114216;28;20099;-73
2021/09/08 03:41:58;;;;;;;2.08;1.60;;;17.10;73.50;;;;;;5114739;28;20020;-73
2021/09/08 03:44:24;;;;;;;2.28;1.58;;;17.10;74.20;;;;;;5114699;28;20523;-73
2021/09/08 03:46:49;;;;;;;1.58;1.35;;;17.10;73.60;;;;;;5114600;28;20131;-73
2021/09/08 03:49:15;;;;;;;2.47;1.40;;;17.10;73.60;;;;;;5114592;28;20046;-73
2021/09/08 03:51:40;;;;;;;1.20;1.10;;;17.10;73.60;;;;;;5114369;28;20111;-74
2021/09/08 03:54:06;;;;;;;1.77;1.45;;;17.10;73.60;;;;;;5114086;28;20023;-73
2021/09/08 03:56:31;;;;;;;1.40;1.30;;;17.10;73.70;;;;;;5096156;28;20515;-73
2021/09/08 03:58:57;;;;;;;1.50;1.20;;;17.10;73.60;;;;;;5114416;28;20019;-73
2021/09/08 04:01:22;;;;;;;1.67;1.45;;;17.00;73.60;;;;;;5114365;28;20076;-73
2021/09/08 04:03:49;;;;;;;2.15;1.25;;;17.00;73.60;;;;;;5114151;28;20020;-73
2021/09/08 04:06:15;;;;;;;1.48;1.20;;;17.00;73.70;;;;;;5114118;28;20089;-73
2021/09/08 04:08:40;;;;;;;1.85;1.30;;;17.00;73.80;;;;;;5095655;28;20031;-72
2021/09/08 04:11:06;;;;;;;2.25;1.25;;;17.00;73.80;;;;;;5114305;28;20045;-73
2021/09/08 04:13:31;;;;;;;2.20;1.45;;;17.00;73.80;;;;;;5114161;28;20094;-72
2021/09/08 04:15:57;;;;;;;1.73;1.30;;;17.00;73.90;;;;;;5114005;28;20080;-72
2021/09/08 04:18:22;;;;;;;1.30;1.10;;;17.00;74.00;;;;;;5114011;28;20026;-72
2021/09/08 04:20:48;;;;;;;2.20;1.60;;;17.00;74.00;;;;;;5113879;28;20024;-72
2021/09/08 04:23:14;;;;;;;1.85;1.30;;;16.90;73.90;;;;;;5113625;28;20019;-72
2021/09/08 04:25:40;;;;;;;2.33;1.23;;;17.00;74.00;;;;;;5114027;28;20387;-73
2021/09/08 04:28:06;;;;;;;1.75;1.48;;;16.90;74.00;;;;;;5095689;28;20024;-73
2021/09/08 04:30:32;;;;;;;1.55;1.23;;;16.90;74.00;;;;;;5113810;28;20015;-73
2021/09/08 04:32:57;;;;;;;1.20;1.10;;;16.90;74.00;;;;;;5113840;28;20138;-73
2021/09/08 04:35:23;;;;;;;1.30;1.10;;;16.90;74.00;;;;;;5095585;28;20020;-73
2021/09/08 04:37:49;;;;;;;1.35;1.02;;;16.90;74.00;;;;;;5112493;28;20115;-73
2021/09/08 04:40:15;;;;;;;2.08;1.48;;;16.90;74.10;;;;;;5113666;28;20142;-73
2021/09/08 04:42:40;;;;;;;1.75;1.15;;;16.90;74.10;;;;;;5113895;28;20032;-73
2021/09/08 04:45:06;;;;;;;1.80;1.30;;;16.90;74.20;;;;;;5095468;28;20504;-73
2021/09/08 04:47:32;;;;;;;1.45;1.23;;;16.90;74.20;;;;;;5113837;28;20468;-73
2021/09/08 04:49:57;;;;;;;2.00;1.45;;;16.90;74.20;;;;;;5114057;28;20098;-71
2021/09/08 04:52:23;;;;;;;2.22;1.73;;;16.80;74.20;;;;;;5113282;28;20016;-71
2021/09/08 04:54:49;;;;;;;1.48;1.17;;;16.90;74.20;;;;;;5095420;28;20024;-71
2021/09/08 04:57:14;;;;;;;1.80;1.40;;;16.90;74.20;;;;;;5095394;28;20024;-72
2021/09/08 04:59:40;;;;;;;1.73;1.42;;;16.80;74.20;;;;;;5113536;28;20020;-72
2021/09/08 05:02:05;;;;;;;1.05;1.02;;;16.90;74.20;;;;;;5113561;28;20468;-71
2021/09/08 05:04:30;;;;;;;2.25;1.25;;;16.90;74.20;;;;;;5113578;28;20055;-71
2021/09/08 05:06:56;;;;;;;2.83;1.60;;;16.80;74.20;;;;;;5112955;28;20038;-72
2021/09/08 05:09:21;;;;;;;2.42;1.38;;;16.80;74.20;;;;;;5113490;28;20042;-73
2021/09/08 05:11:47;;;;;;;1.50;1.40;;;16.80;74.30;;;;;;5113522;28;20054;-72
2021/09/08 05:14:13;;;;;;;2.05;1.30;;;16.80;74.30;;;;;;5113465;28;20042;-73
2021/09/08 05:16:38;;;;;;;1.70;1.23;;;16.80;74.30;;;;;;5113296;28;20031;-74
2021/09/08 05:19:04;;;;;;;1.30;1.20;;;16.80;74.30;;;;;;5113451;28;20043;-73
2021/09/08 05:21:30;;;;;;;1.90;1.50;;;16.80;74.40;;;;;;5112980;28;20050;-71
2021/09/08 05:23:55;;;;;;;1.95;1.25;;;16.80;74.50;;;;;;5113373;28;20023;-72
2021/09/08 05:26:21;;;;;;;1.67;1.48;;;16.80;74.40;;;;;;5113410;28;20020;-72
2021/09/08 05:28:47;;;;;;;1.60;1.50;;;16.80;74.40;;;;;;5113302;28;20020;-71
2021/09/08 05:31:13;;;;;;;1.20;1.05;;;16.80;74.40;;;;;;5094952;28;20043;-72
2021/09/08 05:33:39;;;;;;;1.25;1.10;;;16.80;74.40;;;;;;5112951;28;20048;-72
2021/09/08 05:36:05;;;;;;;2.03;1.38;;;16.90;74.40;;;;;;5112701;28;20023;-71
2021/09/08 05:38:30;;;;;;;1.33;1.23;;;16.90;74.40;;;;;;5113218;28;20482;-71
2021/09/08 05:40:56;;;;;;;1.63;1.23;;;16.90;74.40;;;;;;5113259;28;20043;-72
2021/09/08 05:43:22;;;;;;;2.40;1.30;;;16.90;74.40;;;;;;5113106;28;20487;-72
2021/09/08 05:45:47;;;;;;;2.05;1.52;;;16.90;74.40;;;;;;5112943;28;20024;-72
2021/09/08 05:48:13;;;;;;;1.42;1.25;;;16.90;74.50;;;;;;5095354;28;20098;-71
2021/09/08 05:50:38;;;;;;;1.63;1.35;;;16.90;74.40;;;;;;5116455;28;20019;-72
2021/09/08 05:53:04;;;;;;;1.33;1.08;;;16.90;74.40;;;;;;5116864;28;20027;-72
2021/09/08 05:55:30;;;;;;;1.23;1.00;;;16.90;74.40;;;;;;5116822;28;20020;-72
2021/09/08 05:57:56;;;;;;;1.05;0.90;;;16.90;74.40;;;;;;5116791;28;20036;-72
2021/09/08 06:00:22;;;;;;;1.55;1.00;;;17.00;74.40;;;;;;5116563;28;20425;-72
2021/09/08 06:02:47;;;;;;;1.50;1.40;;;17.00;74.50;;;;;;5116713;28;20024;-71
2021/09/08 06:05:13;;;;;;;1.60;1.20;;;17.00;74.40;;;;;;5097772;28;20016;-71
2021/09/08 06:07:39;;;;;;;1.40;1.20;;;17.00;74.50;;;;;;5116560;28;20024;-71
2021/09/08 06:10:06;;;;;;;1.38;1.20;;;17.10;74.50;;;;;;5116522;28;20380;-71
2021/09/08 06:12:31;;;;;;;1.40;1.05;;;17.10;74.50;;;;;;5116419;28;20122;-71
2021/09/08 06:14:57;;;;;;;1.30;1.20;;;17.10;74.40;;;;;;5116381;28;20494;-71
2021/09/08 06:17:23;;;;;;;1.10;1.00;;;17.10;74.40;;;;;;5116271;28;20035;-71
2021/09/08 06:19:48;;;;;;;1.40;1.00;;;17.20;74.40;;;;;;5115876;28;20102;-72
2021/09/08 06:22:13;;;;;;;2.03;1.42;;;17.20;74.30;;;;;;5116190;28;20023;-70
2021/09/08 06:24:39;;;;;;;1.30;1.02;;;17.20;74.40;;;;;;5116266;28;20016;-71
2021/09/08 06:27:05;;;;;;;1.33;1.23;;;17.20;74.40;;;;;;5116128;28;20051;-71
2021/09/08 06:29:30;;;;;;;2.13;1.15;;;17.20;74.40;;;;;;5116076;28;20026;-71
2021/09/08 06:31:56;;;;;;;1.63;1.27;;;17.30;74.40;;;;;;5097806;28;20118;-71
2021/09/08 06:34:21;;;;;;;2.15;1.52;;;17.30;74.50;;;;;;5115244;28;20119;-71
2021/09/08 06:36:49;;;;;;;1.60;1.25;;;17.30;74.50;;;;;;5115963;28;20043;-71
2021/09/08 06:39:15;;;;;;;2.00;1.30;;;17.40;74.50;;;;;;5097776;28;20020;-71
2021/09/08 06:41:40;;;;;;;1.88;1.33;;;17.40;74.50;;;;;;5115874;28;20032;-71
2021/09/08 06:44:06;;;;;;;1.58;1.40;;;17.50;74.50;;;;;;5115935;28;20020;-71
2021/09/08 06:46:32;;;;;;;1.67;1.50;;;17.50;74.50;;;;;;5115735;28;20162;-71
2021/09/08 06:48:57;;;;;;;1.55;1.40;;;17.50;74.40;;;;;;5115247;28;20023;-71
2021/09/08 06:51:23;;;;;;;2.08;1.40;;;17.60;74.40;;;;;;5097414;28;20030;-70
2021/09/08 06:53:48;;;;;;;2.72;1.65;;;17.60;74.40;;;;;;5115575;28;20019;-71
2021/09/08 06:56:14;;;;;;;2.45;1.75;;;17.70;74.40;;;;;;5115473;28;20024;-70
2021/09/08 06:58:39;;;;;;;2.65;1.38;;;17.80;74.40;;;;;;5115616;28;20383;-71
2021/09/08 07:01:05;;;;;;;1.45;1.20;;;17.90;74.30;;;;;;5114491;28;20024;-72
2021/09/08 07:03:30;;;;;;;1.70;1.40;;;17.90;74.30;;;;;;5114962;28;20020;-71
2021/09/08 07:05:56;;;;;;;1.77;1.27;;;18.00;74.30;;;;;;5115423;28;20440;-71
2021/09/08 07:08:21;;;;;;;1.73;1.60;;;18.10;74.30;;;;;;5115277;28;20027;-71
2021/09/08 07:10:48;;;;;;;1.60;1.27;;;18.20;74.80;;;;;;5097043;28;20024;-71
2021/09/08 07:13:14;;;;;;;2.45;1.60;;;18.20;74.80;;;;;;5115390;28;20030;-70
2021/09/08 07:15:39;;;;;;;1.70;1.13;;;18.30;74.10;;;;;;5115264;28;20024;-71
2021/09/08 07:18:05;;;;;;;1.42;1.25;;;18.40;74.00;;;;;;5114491;28;20031;-70
2021/09/08 07:20:30;;;;;;;1.33;1.23;;;18.50;74.00;;;;;;5115069;28;20075;-71
2021/09/08 07:22:56;;;;;;;2.00;1.38;;;18.50;73.90;;;;;;5115081;28;20024;-71
2021/09/08 07:25:22;;;;;;;2.45;1.52;;;18.60;73.90;;;;;;5114952;28;20008;-71
2021/09/08 07:27:48;;;;;;;1.60;1.40;;;18.60;73.90;;;;;;5096709;28;20032;-71
2021/09/08 07:30:16;;;;;;;2.08;1.65;;;18.70;73.90;;;;;;5114893;28;20020;-70
2021/09/08 07:32:42;;;;;;;1.63;1.33;;;18.80;74.50;;;;;;5114200;28;20028;-71
2021/09/08 07:35:08;;;;;;;1.83;1.33;;;18.90;73.80;;;;;;5115036;28;20064;-71
2021/09/08 07:37:36;;;;;;;1.60;1.40;;;18.90;73.80;;;;;;5114639;28;20032;-71
2021/09/08 07:40:02;;;;;;;1.98;1.23;;;19.00;73.70;;;;;;5096673;28;20027;-71
2021/09/08 07:42:28;;;;;;;2.17;1.77;;;19.00;73.60;;;;;;5114728;28;20034;-71
2021/09/08 07:44:53;;;;;;;2.30;1.35;;;19.10;73.60;;;;;;5114054;28;20020;-71
2021/09/08 07:47:19;;;;;;;2.13;1.40;;;19.20;73.70;;;;;;5114661;28;20476;-71
2021/09/08 07:49:44;;;;;;;2.40;1.63;;;19.20;73.60;;;;;;5114463;28;20014;-71
2021/09/08 07:52:10;;;;;;;2.67;1.60;;;19.30;73.60;;;;;;5114595;28;20069;-72
2021/09/08 07:54:35;;;;;;;1.33;1.23;;;19.30;73.50;;;;;;5114350;28;20064;-70
2021/09/08 07:57:01;;;;;;;2.03;1.73;;;19.40;73.50;;;;;;5114393;28;20369;-69
2021/09/08 07:59:26;;;;;;;1.83;1.48;;;19.50;73.40;;;;;;5113929;28;20092;-70
2021/09/08 08:01:52;;;;;;;2.28;1.70;;;19.50;73.40;;;;;;5114198;28;20031;-70
2021/09/08 08:04:18;;;;;;;1.48;1.27;;;19.60;73.40;;;;;;5114325;28;20060;-69
2021/09/08 08:06:43;;;;;;;1.55;1.45;;;19.70;73.40;;;;;;5114200;28;20024;-70
2021/09/08 08:09:09;;;;;;;1.95;1.63;;;19.80;73.30;;;;;;5114239;28;20024;-69
2021/09/08 08:11:34;;;;;;;2.33;1.85;;;19.80;73.20;;;;;;5113964;28;20498;-70
2021/09/08 08:14:00;;;;;;;2.17;1.60;;;19.90;73.20;;;;;;5113676;28;20111;-71
2021/09/08 08:16:26;;;;;;;2.78;1.90;;;19.90;73.20;;;;;;5114057;28;20046;-71
2021/09/08 08:18:51;;;;;;;2.67;1.70;;;20.00;73.10;;;;;;5113956;28;20038;-72
2021/09/08 08:21:17;;;;;;;2.28;1.50;;;20.10;73.10;;;;;;5114264;28;20023;-72
2021/09/08 08:23:42;;;;;;;1.88;1.52;;;20.20;73.00;;;;;;5114010;28;20029;-72
2021/09/08 08:26:08;;;;;;;1.73;1.45;;;20.30;73.00;;;;;;5113897;28;20089;-71
2021/09/08 08:28:34;;;;;;;1.63;1.38;;;20.40;72.80;;;;;;5095299;28;20110;-71
2021/09/08 08:30:59;;;;;;;1.92;1.50;;;20.50;72.80;;;;;;5113887;28;20067;-71
2021/09/08 08:33:26;;;;;;;1.88;1.50;;;20.60;72.80;;;;;;5113772;28;20067;-71
2021/09/08 08:35:52;;;;;;;1.77;1.42;;;20.60;72.80;;;;;;5113586;28;20030;-71
2021/09/08 08:38:17;;;;;;;1.60;1.50;;;20.70;72.80;;;;;;5113925;28;20388;-71
2021/09/08 08:40:43;;;;;;;1.95;1.48;;;20.70;72.70;;;;;;5113752;28;20059;-71
2021/09/08 08:43:10;;;;;;;1.95;1.30;;;20.80;72.70;;;;;;5113287;28;20024;-72
2021/09/08 08:45:36;;;;;;;1.50;1.40;;;20.90;72.60;;;;;;5113731;28;20019;-72
2021/09/08 08:48:01;;;;;;;1.33;1.23;;;21.00;72.60;;;;;;5113620;28;20016;-73
2021/09/08 08:50:28;;;;;;;2.08;1.48;;;21.10;72.50;;;;;;5113871;28;20476;-75
2021/09/08 08:52:55;;;;;;;2.63;1.60;;;21.20;72.40;;;;;;5113811;28;20438;-73
2021/09/08 08:55:21;;;;;;;1.20;1.10;;;21.30;72.30;;;;;;5113724;28;20026;-73
2021/09/08 08:57:50;;;;;;;1.65;1.27;;;21.40;72.30;;;;;;5112925;28;20028;-73
2021/09/08 09:00:18;;;;;;;2.30;1.77;;;21.40;72.20;;;;;;5113712;28;20019;-73
2021/09/08 09:02:51;;;;;;;1.40;1.30;;;21.50;72.20;;;;;;5113656;28;20028;-73
2021/09/08 09:05:39;;;;;;;2.10;1.42;;;21.50;72.20;;;;;;5113386;28;20027;-73
2021/09/08 09:08:10;;;;;;;1.45;1.30;;;21.60;72.10;;;;;;5113440;28;20051;-74
2021/09/08 09:10:39;;;;;;;2.00;1.50;;;21.60;72.00;;;;;;5113533;28;20015;-73
2021/09/08 09:13:05;;;;;;;1.52;1.23;;;21.80;72.00;;;;;;5113328;28;20383;-73
2021/09/08 09:15:31;;;;;;;2.15;1.88;;;21.80;72.50;;;;;;5113515;28;20015;-72
2021/09/08 09:17:57;;;;;;;2.30;1.75;;;21.90;71.90;;;;;;5113273;28;20122;-72
2021/09/08 09:20:25;;;;;;;2.95;1.80;;;22.00;71.90;;;;;;5113468;28;20019;-73
2021/09/08 09:22:56;;;;;;;1.92;1.35;;;22.00;71.80;;;;;;5113313;28;20024;-73
2021/09/08 09:25:25;;;;;;;2.47;1.63;;;22.10;71.70;;;;;;5117228;28;20069;-73
2021/09/08 09:27:58;;;;;;;1.77;1.65;;;22.20;71.70;;;;;;5116797;28;20107;-73
2021/09/08 09:30:29;;;;;;;2.42;1.83;;;22.30;71.70;;;;;;5117218;28;20111;-73
2021/09/08 09:32:56;;;;;;;2.28;1.77;;;22.40;71.70;;;;;;5117202;28;20040;-73
2021/09/08 09:35:24;;;;;;;2.30;1.67;;;22.40;71.50;;;;;;5117150;28;20053;-73
2021/09/08 09:37:56;;;;;;;2.30;1.60;;;22.50;71.50;;;;;;5117026;28;20032;-73
2021/09/08 09:40:37;;;;;;;2.05;1.40;;;22.60;71.50;;;;;;5117191;28;20030;-73
2021/09/08 09:43:11;;;;;;;2.13;1.85;;;22.70;71.40;;;;;;5116774;28;20034;-73
2021/09/08 09:45:41;;;;;;;2.20;1.52;;;22.80;71.30;;;;;;5098614;28;20031;-73
2021/09/08 09:48:08;;;;;;;2.17;1.70;;;22.90;71.20;;;;;;5098682;28;20016;-73
2021/09/08 09:50:34;;;;;;;1.25;1.15;;;22.90;71.10;;;;;;5098640;28;20239;-72
2021/09/08 09:53:02;;;;;;;1.65;1.50;;;23.00;71.10;;;;;;5116874;28;20020;-72
2021/09/08 09:55:28;;;;;;;1.30;1.20;;;23.10;70.90;;;;;;5116359;28;20031;-72
2021/09/08 09:57:54;;;;;;;2.17;1.58;;;23.10;70.90;;;;;;5116606;28;20039;-73
2021/09/08 10:00:21;;;;;;;2.05;1.42;;;23.20;70.90;;;;;;5098354;28;20016;-73
2021/09/08 10:02:47;;;;;;;1.88;1.63;;;23.30;70.80;;;;;;5116621;28;20042;-73
2021/09/08 10:05:14;;;;;;;1.80;1.55;;;23.40;70.70;;;;;;5116493;28;20019;-73
2021/09/08 10:07:40;;;;;;;2.95;1.90;;;23.50;70.60;;;;;;5116898;28;20122;-72
2021/09/08 10:10:24;;;;;;;1.63;1.50;;;23.50;70.50;;;;;;5115958;28;20024;-72
2021/09/08 10:12:58;;;;;;;1.77;1.67;;;23.60;70.40;;;;;;5116522;28;20119;-72
2021/09/08 10:15:25;;;;;;;2.65;1.80;;;23.70;70.30;;;;;;5116515;28;20049;-72
2021/09/08 10:17:51;;;;;;;1.60;1.42;;;23.80;70.30;;;;;;5116370;28;20032;-73
2021/09/08 10:20:20;;;;;;;2.17;1.73;;;23.90;70.10;;;;;;5116353;28;20375;-73
2021/09/08 10:22:47;;;;;;;1.45;1.35;;;24.00;70.00;;;;;;5116346;28;20526;-73
2021/09/08 10:25:19;;;;;;;1.20;1.10;;;24.00;70.00;;;;;;5115831;28;20153;-73
2021/09/08 10:27:45;;;;;;;2.20;1.40;;;24.10;70.00;;;;;;5116104;28;20106;-73
2021/09/08 10:30:12;;;;;;;1.67;1.38;;;24.20;70.00;;;;;;5116119;28;20020;-73
2021/09/08 10:32:38;;;;;;;2.05;1.50;;;24.30;69.90;;;;;;5115883;28;20023;-73
2021/09/08 10:35:18;;;;;;;2.08;1.40;;;24.40;69.80;;;;;;5114928;28;20545;-73
2021/09/08 10:37:47;;;;;;;1.10;1.00;;;24.50;69.60;;;;;;5116046;28;20106;-73
2021/09/08 10:40:21;;;;;;;1.52;1.40;;;24.50;69.60;;;;;;5115410;28;20019;-73
2021/09/08 10:43:00;;;;;;;2.05;1.30;;;24.60;69.60;;;;;;5116032;28;20034;-73
2021/09/08 10:45:30;;;;;;;2.40;1.42;;;24.60;69.60;;;;;;5115845;28;20401;-73
2021/09/08 10:48:01;;;;;;;1.33;1.23;;;24.70;69.60;;;;;;5115886;28;20023;-73
2021/09/08 10:50:35;;;;;;;1.90;1.42;;;24.80;69.40;;;;;;5115843;28;20031;-73
2021/09/08 10:53:21;;;;;;;1.50;1.17;;;24.90;69.30;;;;;;5097331;28;20110;-73
2021/09/08 10:55:50;;;;;;;1.98;1.50;;;25.00;69.30;;;;;;5097336;28;20487;-73
2021/09/08 10:58:16;;;;;;;;;;;25.00;69.30;;;;;;5115868;28;20027;-73
2021/09/08 11:00:43;;;;;;;1.30;1.10;;;25.00;69.50;;;;;;5115595;28;20363;-72
2021/09/08 11:03:25;;;;;;;1.40;1.30;;;25.10;69.30;;;;;;5115677;28;20065;-72
2021/09/08 11:05:58;;;;;;;2.38;1.65;;;25.20;69.10;;;;;;5115626;28;20108;-73
2021/09/08 11:08:25;;;;;;;1.75;1.20;;;25.30;69.00;;;;;;5114913;28;20024;-72
2021/09/08 11:11:03;;;;;;;1.70;1.50;;;25.40;68.90;;;;;;5115478;28;20015;-72
2021/09/08 11:13:29;;;;;;;2.00;1.67;;;25.40;68.80;;;;;;5115395;28;20074;-72
2021/09/08 11:15:54;;;;;;;1.70;1.50;;;25.40;68.80;;;;;;5115201;28;20020;-72
2021/09/08 11:18:20;;;;;;;1.70;1.60;;;25.50;68.70;;;;;;5115195;28;20027;-72
2021/09/08 11:20:46;;;;;;;2.00;1.67;;;25.60;68.60;;;;;;5115170;28;20019;-72
2021/09/08 11:23:14;;;;;;;1.83;1.40;;;25.60;68.50;;;;;;5114709;28;20028;-72
2021/09/08 11:25:42;;;;;;;1.70;1.60;;;25.60;68.40;;;;;;5114889;28;20023;-72
2021/09/08 11:28:11;;;;;;;1.67;1.50;;;25.70;68.50;;;;;;5115213;28;20028;-72
2021/09/08 11:30:39;;;;;;;1.52;1.15;;;25.70;68.50;;;;;;5114899;28;20024;-72
2021/09/08 11:33:10;;;;;;;1.98;1.60;;;25.70;68.50;;;;;;5114667;28;20040;-72
2021/09/08 11:35:50;;;;;;;1.92;1.60;;;25.70;68.40;;;;;;5114765;28;20114;-72
2021/09/08 11:38:21;;;;;;;1.85;1.50;;;25.80;68.10;;;;;;5114377;28;20032;-73
2021/09/08 11:40:49;;;;;;;2.05;1.77;;;25.90;68.10;;;;;;5114755;28;20097;-72
2021/09/08 11:43:31;;;;;;;1.63;1.52;;;25.90;67.90;;;;;;5114967;28;20126;-72
2021/09/08 11:45:57;;;;;;;2.00;1.73;;;26.00;67.90;;;;;;5114115;28;20057;-72
2021/09/08 11:48:30;;;;;;;2.70;1.67;;;26.10;67.80;;;;;;5114698;28;20020;-72
2021/09/08 11:51:03;;;;;;;1.23;1.13;;;26.20;67.60;;;;;;5114542;28;20024;-72
2021/09/08 11:53:29;;;;;;;1.70;1.60;;;26.30;67.60;;;;;;5095757;28;20019;-72
2021/09/08 11:56:05;;;;;;;2.20;1.83;;;26.30;67.40;;;;;;5114355;28;20028;-72
2021/09/08 11:58:30;;;;;;;1.50;1.40;;;26.40;67.20;;;;;;5114364;28;20062;-72
2021/09/08 12:01:00;;;;;;;1.58;1.30;;;26.50;67.20;;;;;;5096156;28;20012;-72
2021/09/08 12:03:29;;;;;;;1.60;1.30;;;26.60;67.00;;;;;;5114438;28;20065;-73
2021/09/08 12:06:07;;;;;;;;;;;26.70;67.00;;;;;;5095976;28;20365;-73
2021/09/08 12:08:33;;;;;;;1.25;1.08;;;26.60;67.10;;;;;;5114100;28;19912;-73
2021/09/08 12:10:58;;;;;;;1.02;1.02;;;26.80;67.20;;;;;;5114335;28;20023;-72
2021/09/08 12:13:33;;;;;;;1.52;1.40;;;26.80;67.00;;;;;;5114230;28;20043;-73
2021/09/08 12:15:59;;;;;;;0.93;0.80;;;26.90;66.80;;;;;;5114046;28;20106;-73
2021/09/08 12:18:25;;;;;;;1.35;1.00;;;27.10;66.80;;;;;;5114188;28;20024;-73
2021/09/08 12:20:50;;;;;;;1.17;1.08;;;27.20;66.70;;;;;;5113489;28;20535;-73
2021/09/08 12:23:26;;;;;;;0.93;0.85;;;27.30;66.50;;;;;;5114049;28;20380;-73
2021/09/08 12:26:12;;;;;;;2.83;1.30;;;27.60;66.30;;;;;;5113984;28;20058;-73
2021/09/08 12:28:57;;;;;;;1.08;1.08;;;27.80;66.10;;;;;;5113914;28;20027;-73
2021/09/08 12:31:23;;;;;;;1.10;1.00;;;27.90;65.80;;;;;;5113600;28;20028;-73
2021/09/08 12:33:57;;;;;;;1.80;1.30;;;28.10;65.60;;;;;;5113555;28;20047;-73
2021/09/08 12:36:24;;;;;;;1.63;1.52;;;28.30;65.30;;;;;;5113236;28;20070;-73
2021/09/08 12:38:51;;;;;;;1.27;1.17;;;28.40;65.10;;;;;;5113783;28;20036;-74
2021/09/08 12:41:24;;;;;;;1.42;1.23;;;28.50;65.00;;;;;;5113728;28;20016;-75
2021/09/08 12:43:52;;;;;;;1.55;1.45;;;28.70;65.00;;;;;;5113702;28;20016;-75
2021/09/08 12:46:18;;;;;;;1.55;1.30;;;29.00;64.70;;;;;;5113683;28;20051;-75